Time;durP1;ratioP1;P1;durP2;ratioP2;P2;SDS_P1;SDS_P2;PMS_P1;PMS_P2;Temp;Humidity;BMP_temperature;BMP_pressure;BME280_temperature;BME280_humidity;BME280_pressure;Samples;Min_cycle;Max_cycle;Signal;HPM_P1;HPM_P2
2022/09/14 00:01:11;;;;;;;8.48;1.80;;;;;;;;;;4361901;32;20039;-70
2022/09/14 00:03:36;;;;;;;6.47;1.77;;;;;;;;;;4347260;33;20111;-70
2022/09/14 00:06:05;;;;;;;5.70;1.70;;;;;;;;;;4347880;33;20114;-71
2022/09/14 00:08:31;;;;;;;5.62;1.92;;;;;;;;;;4347333;33;20052;-70
2022/09/14 00:10:56;;;;;;;10.02;1.65;;;;;;;;;;4361605;33;20023;-70
2022/09/14 00:13:22;;;;;;;8.82;1.80;;;;;;;;;;4362728;32;20081;-70
2022/09/14 00:15:49;;;;;;;6.85;1.92;;;;;;;;;;4361097;32;20035;-70
2022/09/14 00:18:17;;;;;;;9.02;1.65;;;;;;;;;;4361674;33;20390;-70
2022/09/14 00:20:43;;;;;;;8.23;2.08;;;;;;;;;;4348978;33;20373;-70
2022/09/14 00:23:08;;;;;;;8.70;1.50;;;;;;;;;;4362302;32;20057;-70
2022/09/14 00:25:34;;;;;;;9.32;1.92;;;;;;;;;;4362478;32;20402;-70
2022/09/14 00:27:59;;;;;;;6.40;1.80;;;;;;;;;;4361626;32;20053;-70
2022/09/14 00:30:25;;;;;;;9.55;2.55;;;;;;;;;;4351132;33;20050;-70
2022/09/14 00:32:53;;;;;;;7.32;2.00;;;;;;;;;;4346789;33;20085;-70
2022/09/14 00:35:18;;;;;;;11.57;1.98;;;;;;;;;;4346734;33;20019;-70
2022/09/14 00:38:05;;;;;;;9.00;2.65;;;;;;;;;;4347797;33;20111;-70
2022/09/14 00:40:30;;;;;;;14.32;2.17;;;;;;;;;;4322154;33;20040;-68
2022/09/14 00:42:55;;;;;;;9.95;1.98;;;;;;;;;;4314851;33;20461;-70
2022/09/14 00:45:21;;;;;;;5.97;1.67;;;;;;;;;;4315896;33;20036;-70
2022/09/14 00:47:47;;;;;;;5.72;1.70;;;;;;;;;;4315797;33;20185;-69
2022/09/14 00:50:12;;;;;;;10.30;1.80;;;;;;;;;;4314563;33;20045;-68
2022/09/14 00:52:40;;;;;;;11.52;2.05;;;;;;;;;;4315332;33;20375;-69
2022/09/14 00:55:07;;;;;;;10.50;2.33;;;;;;;;;;4316739;33;20076;-68
2022/09/14 00:57:52;;;;;;;3.80;1.67;;;;;;;;;;4316877;33;20031;-68
2022/09/14 01:00:20;;;;;;;7.20;2.15;;;;;;;;;;4316268;33;20024;-68
2022/09/14 01:02:45;;;;;;;5.95;1.92;;;;;;;;;;4315604;33;20371;-69
2022/09/14 01:05:11;;;;;;;5.90;2.00;;;;;;;;;;4316562;33;20387;-68
2022/09/14 01:07:46;;;;;;;13.07;2.05;;;;;;;;;;4329599;33;20092;-69
2022/09/14 01:10:17;;;;;;;8.52;2.10;;;;;;;;;;4329753;33;20032;-70
2022/09/14 01:12:48;;;;;;;5.10;1.83;;;;;;;;;;4329656;33;20075;-69
2022/09/14 01:15:13;;;;;;;9.60;2.20;;;;;;;;;;4331521;33;20421;-69
2022/09/14 01:17:45;;;;;;;8.63;2.30;;;;;;;;;;4329584;33;20054;-68
2022/09/14 01:20:10;;;;;;;8.70;1.60;;;;;;;;;;4330642;33;20129;-68
2022/09/14 01:22:39;;;;;;;8.70;2.03;;;;;;;;;;4331904;33;20316;-69
2022/09/14 01:25:26;;;;;;;8.32;2.10;;;;;;;;;;4332186;33;20129;-68
2022/09/14 01:27:53;;;;;;;6.97;1.73;;;;;;;;;;4330347;33;20035;-68
2022/09/14 01:30:21;;;;;;;11.60;2.22;;;;;;;;;;4329771;33;20095;-69
2022/09/14 01:32:53;;;;;;;4.53;1.58;;;;;;;;;;4329828;33;20059;-69
2022/09/14 01:35:21;;;;;;;6.70;1.80;;;;;;;;;;4330713;33;20111;-69
2022/09/14 01:37:49;;;;;;;7.30;1.80;;;;;;;;;;4329482;33;20090;-69
2022/09/14 01:40:33;;;;;;;5.55;1.70;;;;;;;;;;4315449;33;20048;-69
2022/09/14 01:43:02;;;;;;;9.35;2.28;;;;;;;;;;4315700;33;20091;-69
2022/09/14 01:45:28;;;;;;;9.82;2.60;;;;;;;;;;4315287;33;20031;-69
2022/09/14 01:47:56;;;;;;;11.07;2.62;;;;;;;;;;4330079;33;20079;-69
2022/09/14 01:50:35;;;;;;;8.18;2.12;;;;;;;;;;4330001;33;20095;-69
2022/09/14 01:53:06;;;;;;;5.18;2.17;;;;;;;;;;4317764;33;20036;-69
2022/09/14 01:55:42;;;;;;;10.13;2.00;;;;;;;;;;4328332;33;20061;-70
2022/09/14 01:58:10;;;;;;;6.78;2.47;;;;;;;;;;4328157;33;20493;-68
2022/09/14 02:00:38;;;;;;;9.43;2.00;;;;;;;;;;4329964;33;20099;-68
2022/09/14 02:03:07;;;;;;;11.07;2.42;;;;;;;;;;4330191;33;20090;-68
2022/09/14 02:05:33;;;;;;;6.70;1.90;;;;;;;;;;4330458;33;20136;-68
2022/09/14 02:07:58;;;;;;;7.87;1.75;;;;;;;;;;4328540;33;20031;-69
2022/09/14 02:10:24;;;;;;;11.85;2.67;;;;;;;;;;4330224;33;20031;-69
2022/09/14 02:12:50;;;;;;;8.88;2.67;;;;;;;;;;4330893;33;20399;-69
2022/09/14 02:15:15;;;;;;;10.18;2.75;;;;;;;;;;4330887;33;20051;-68
2022/09/14 02:17:41;;;;;;;6.43;2.33;;;;;;;;;;4327597;33;20391;-69
2022/09/14 02:20:08;;;;;;;5.18;1.73;;;;;;;;;;4327436;33;20048;-69
2022/09/14 02:22:33;;;;;;;4.60;2.12;;;;;;;;;;4315828;33;20028;-70
2022/09/14 02:24:58;;;;;;;7.80;1.80;;;;;;;;;;4329534;33;20455;-69
2022/09/14 02:27:24;;;;;;;8.55;2.28;;;;;;;;;;4333196;33;20032;-68
2022/09/14 02:29:49;;;;;;;9.35;2.37;;;;;;;;;;4331816;33;20031;-68
2022/09/14 02:32:20;;;;;;;5.10;1.83;;;;;;;;;;4320331;33;20144;-70
2022/09/14 02:35:07;;;;;;;12.27;2.12;;;;;;;;;;4331416;33;20027;-70
2022/09/14 02:37:36;;;;;;;7.53;1.95;;;;;;;;;;4332585;33;20032;-69
2022/09/14 02:40:13;;;;;;;6.10;1.80;;;;;;;;;;4331499;33;20044;-69
2022/09/14 02:42:42;;;;;;;13.82;2.00;;;;;;;;;;4332381;33;20024;-68
2022/09/14 02:45:13;;;;;;;8.75;2.00;;;;;;;;;;4332313;33;20032;-69
2022/09/14 02:47:48;;;;;;;7.12;1.77;;;;;;;;;;4332736;33;20036;-70
2022/09/14 02:50:19;;;;;;;7.30;2.25;;;;;;;;;;4331548;33;20031;-69
2022/09/14 02:52:47;;;;;;;10.25;2.30;;;;;;;;;;4332207;33;20218;-68
2022/09/14 02:55:15;;;;;;;7.22;2.10;;;;;;;;;;4332807;33;20368;-69
2022/09/14 02:57:59;;;;;;;9.43;1.92;;;;;;;;;;4332182;33;20055;-71
2022/09/14 03:00:25;;;;;;;6.62;2.10;;;;;;;;;;4317402;33;20058;-69
2022/09/14 03:02:50;;;;;;;5.10;2.37;;;;;;;;;;4330280;33;20058;-69
2022/09/14 03:05:15;;;;;;;5.03;2.08;;;;;;;;;;4332285;33;20036;-68
2022/09/14 03:07:40;;;;;;;8.80;2.60;;;;;;;;;;4332534;33;20058;-69
2022/09/14 03:10:06;;;;;;;6.35;2.17;;;;;;;;;;4331936;33;20027;-70
2022/09/14 03:12:31;;;;;;;4.68;1.95;;;;;;;;;;4332908;33;20044;-68
2022/09/14 03:14:56;;;;;;;6.57;2.05;;;;;;;;;;4332249;33;20032;-68
2022/09/14 03:17:21;;;;;;;7.40;2.23;;;;;;;;;;4330517;33;20027;-69
2022/09/14 03:19:46;;;;;;;11.50;2.00;;;;;;;;;;4330973;33;20523;-69
2022/09/14 03:22:12;;;;;;;10.63;2.37;;;;;;;;;;4330641;33;20028;-68
2022/09/14 03:24:37;;;;;;;4.60;2.13;;;;;;;;;;4331979;33;20032;-68
2022/09/14 03:27:02;;;;;;;7.55;2.12;;;;;;;;;;4331739;33;20132;-68
2022/09/14 03:29:27;;;;;;;8.43;2.22;;;;;;;;;;4331934;33;20028;-69
2022/09/14 03:31:52;;;;;;;8.98;2.05;;;;;;;;;;4330023;33;20102;-69
2022/09/14 03:34:18;;;;;;;9.95;3.22;;;;;;;;;;4331476;33;20027;-68
2022/09/14 03:36:43;;;;;;;8.10;2.10;;;;;;;;;;4329367;33;20063;-69
2022/09/14 03:39:08;;;;;;;6.83;1.87;;;;;;;;;;4330514;33;20136;-69
2022/09/14 03:41:33;;;;;;;12.60;2.67;;;;;;;;;;4331834;33;20308;-70
2022/09/14 03:43:58;;;;;;;5.63;2.13;;;;;;;;;;4330558;33;20326;-69
2022/09/14 03:46:24;;;;;;;7.65;2.50;;;;;;;;;;4330594;33;20194;-69
2022/09/14 03:48:49;;;;;;;11.27;2.62;;;;;;;;;;4331103;33;20032;-69
2022/09/14 03:51:14;;;;;;;5.78;2.05;;;;;;;;;;4331841;33;20433;-69
2022/09/14 03:53:40;;;;;;;6.53;2.72;;;;;;;;;;4332464;33;20106;-70
2022/09/14 03:56:07;;;;;;;6.35;2.92;;;;;;;;;;4332058;33;20032;-70
2022/09/14 03:58:32;;;;;;;6.78;2.72;;;;;;;;;;4332215;33;20044;-70
2022/09/14 04:01:02;;;;;;;11.63;2.50;;;;;;;;;;4329867;33;20185;-69
2022/09/14 04:03:27;;;;;;;11.60;2.53;;;;;;;;;;4331299;33;20051;-69
2022/09/14 04:05:53;;;;;;;11.67;2.40;;;;;;;;;;4330870;33;20032;-68
2022/09/14 04:08:19;;;;;;;6.85;1.87;;;;;;;;;;4316518;33;20150;-68
2022/09/14 04:10:44;;;;;;;14.32;2.20;;;;;;;;;;4331103;33;20415;-69
2022/09/14 04:13:09;;;;;;;8.32;2.12;;;;;;;;;;4332125;33;20054;-69
2022/09/14 04:15:34;;;;;;;10.57;2.22;;;;;;;;;;4330770;33;20521;-69
2022/09/14 04:17:59;;;;;;;7.65;2.42;;;;;;;;;;4331330;33;20043;-68
2022/09/14 04:20:25;;;;;;;5.45;2.20;;;;;;;;;;4330498;33;20071;-68
2022/09/14 04:22:50;;;;;;;6.43;1.80;;;;;;;;;;4329507;33;20062;-69
2022/09/14 04:25:15;;;;;;;8.57;2.58;;;;;;;;;;4330972;33;20066;-68
2022/09/14 04:27:40;;;;;;;11.45;2.20;;;;;;;;;;4331652;33;20163;-69
2022/09/14 04:30:06;;;;;;;8.20;2.00;;;;;;;;;;4331027;33;20032;-69
2022/09/14 04:32:31;;;;;;;9.93;2.35;;;;;;;;;;4331655;33;20051;-69
2022/09/14 04:34:56;;;;;;;8.90;3.17;;;;;;;;;;4329545;33;20085;-69
2022/09/14 04:37:22;;;;;;;8.18;2.45;;;;;;;;;;4329390;33;20024;-69
2022/09/14 04:39:47;;;;;;;6.25;2.33;;;;;;;;;;4330252;33;20115;-69
2022/09/14 04:42:12;;;;;;;6.27;2.50;;;;;;;;;;4315016;33;20059;-70
2022/09/14 04:44:37;;;;;;;8.05;2.10;;;;;;;;;;4328993;33;20536;-69
2022/09/14 04:47:02;;;;;;;5.53;2.13;;;;;;;;;;4328278;33;20062;-68
2022/09/14 04:49:27;;;;;;;7.50;2.35;;;;;;;;;;4328283;33;20141;-70
2022/09/14 04:51:53;;;;;;;9.13;2.78;;;;;;;;;;4328954;33;20187;-70
2022/09/14 04:54:18;;;;;;;8.15;2.33;;;;;;;;;;4330028;33;20086;-69
2022/09/14 04:56:43;;;;;;;7.72;2.50;;;;;;;;;;4315114;33;20099;-69
2022/09/14 04:59:09;;;;;;;5.50;1.95;;;;;;;;;;4330187;33;20063;-69
2022/09/14 05:01:36;;;;;;;7.60;2.45;;;;;;;;;;4316628;33;20419;-70
2022/09/14 05:04:01;;;;;;;7.15;2.15;;;;;;;;;;4312813;33;20163;-69
2022/09/14 05:06:28;;;;;;;9.95;2.28;;;;;;;;;;4316089;33;20040;-69
2022/09/14 05:08:53;;;;;;;10.85;2.35;;;;;;;;;;4314120;33;20059;-69
2022/09/14 05:11:22;;;;;;;8.43;2.42;;;;;;;;;;4324052;33;20036;-69
2022/09/14 05:13:47;;;;;;;10.00;3.15;;;;;;;;;;4316551;33;20043;-69
2022/09/14 05:16:24;;;;;;;10.40;3.50;;;;;;;;;;4330184;33;20024;-69
2022/09/14 05:18:49;;;;;;;5.57;3.75;;;;;;;;;;4330793;33;20036;-69
2022/09/14 05:21:15;;;;;;;7.97;3.97;;;;;;;;;;4329423;33;20058;-70
2022/09/14 05:23:41;;;;;;;6.93;3.55;;;;;;;;;;4329245;33;20044;-70
2022/09/14 05:26:06;;;;;;;9.32;4.10;;;;;;;;;;4330357;33;20032;-70
2022/09/14 05:28:32;;;;;;;8.68;3.95;;;;;;;;;;4330603;33;20074;-70
2022/09/14 05:30:57;;;;;;;13.13;4.82;;;;;;;;;;4329257;33;20025;-69
2022/09/14 05:33:22;;;;;;;8.13;4.07;;;;;;;;;;4329386;33;20031;-69
2022/09/14 05:35:48;;;;;;;14.55;5.95;;;;;;;;;;4331153;33;20027;-70
2022/09/14 05:38:14;;;;;;;8.52;4.85;;;;;;;;;;4328889;33;20115;-69
2022/09/14 05:40:39;;;;;;;10.93;4.68;;;;;;;;;;4330850;33;20032;-69
2022/09/14 05:43:04;;;;;;;12.00;4.97;;;;;;;;;;4329701;33;20079;-69
2022/09/14 05:45:30;;;;;;;10.55;4.45;;;;;;;;;;4329716;33;20039;-69
2022/09/14 05:47:58;;;;;;;12.95;5.30;;;;;;;;;;4330240;33;20036;-69
2022/09/14 05:50:24;;;;;;;15.60;4.50;;;;;;;;;;4328866;33;20573;-69
2022/09/14 05:52:50;;;;;;;9.25;3.83;;;;;;;;;;4329676;33;20044;-69
2022/09/14 05:55:15;;;;;;;11.12;4.22;;;;;;;;;;4329789;33;20031;-69
2022/09/14 05:57:40;;;;;;;10.82;3.75;;;;;;;;;;4330603;33;20055;-71
2022/09/14 06:00:06;;;;;;;9.90;3.30;;;;;;;;;;4329813;33;20071;-70
2022/09/14 06:02:32;;;;;;;9.63;3.35;;;;;;;;;;4329453;33;20179;-70
2022/09/14 06:04:57;;;;;;;12.82;3.60;;;;;;;;;;4328736;33;20426;-70
2022/09/14 06:07:22;;;;;;;8.10;3.20;;;;;;;;;;4331025;33;20058;-70
2022/09/14 06:09:48;;;;;;;14.83;3.37;;;;;;;;;;4331335;33;20279;-71
2022/09/14 06:12:13;;;;;;;13.65;3.08;;;;;;;;;;4331993;33;20308;-70
2022/09/14 06:14:39;;;;;;;17.40;5.15;;;;;;;;;;4329863;33;20036;-69
2022/09/14 06:17:05;;;;;;;9.27;3.28;;;;;;;;;;4329167;33;20091;-69
2022/09/14 06:19:31;;;;;;;11.50;3.42;;;;;;;;;;4330197;33;20461;-69
2022/09/14 06:21:56;;;;;;;13.45;3.35;;;;;;;;;;4331544;33;20107;-69
2022/09/14 06:24:22;;;;;;;19.17;3.08;;;;;;;;;;4331759;33;20098;-70
2022/09/14 06:26:47;;;;;;;72.55;6.32;;;;;;;;;;4329961;33;20032;-69
2022/09/14 06:29:13;;;;;;;22.33;3.60;;;;;;;;;;4328967;33;20087;-69
2022/09/14 06:31:38;;;;;;;25.40;3.53;;;;;;;;;;4329702;33;20090;-68
2022/09/14 06:34:04;;;;;;;12.60;3.17;;;;;;;;;;4330251;33;20059;-68
2022/09/14 06:36:29;;;;;;;10.77;3.17;;;;;;;;;;4332542;33;20028;-69
2022/09/14 06:38:54;;;;;;;10.67;4.10;;;;;;;;;;4329731;33;20317;-69
2022/09/14 06:41:21;;;;;;;29.37;4.60;;;;;;;;;;4316096;33;20144;-69
2022/09/14 06:43:47;;;;;;;15.05;3.28;;;;;;;;;;4330293;33;20115;-69
2022/09/14 06:46:13;;;;;;;24.15;4.40;;;;;;;;;;4331233;33;20144;-69
2022/09/14 06:48:40;;;;;;;9.07;4.80;;;;;;;;;;4329140;33;20023;-70
2022/09/14 06:51:13;;;;;;;18.45;5.20;;;;;;;;;;4316113;33;20058;-69
2022/09/14 06:53:39;;;;;;;10.45;3.00;;;;;;;;;;4330525;33;20032;-69
2022/09/14 06:56:04;;;;;;;22.58;4.43;;;;;;;;;;4328155;33;20066;-69
2022/09/14 06:58:31;;;;;;;7.87;3.45;;;;;;;;;;4329012;33;20058;-68
2022/09/14 07:00:59;;;;;;;8.40;3.10;;;;;;;;;;4327817;33;20456;-68
2022/09/14 07:03:25;;;;;;;12.15;3.83;;;;;;;;;;4328263;33;20044;-68
2022/09/14 07:05:50;;;;;;;5.90;3.05;;;;;;;;;;4329075;33;20058;-68
2022/09/14 07:08:15;;;;;;;8.20;3.20;;;;;;;;;;4327820;33;20451;-68
2022/09/14 07:10:41;;;;;;;13.02;3.62;;;;;;;;;;4328954;33;20099;-69
2022/09/14 07:13:07;;;;;;;11.18;3.85;;;;;;;;;;4331332;33;20062;-69
2022/09/14 07:15:32;;;;;;;12.40;4.05;;;;;;;;;;4331328;33;20366;-69
2022/09/14 07:17:57;;;;;;;10.73;3.60;;;;;;;;;;4330569;33;20036;-68
2022/09/14 07:20:22;;;;;;;10.13;3.58;;;;;;;;;;4317653;33;20023;-69
2022/09/14 07:22:48;;;;;;;9.38;3.35;;;;;;;;;;4332690;33;20027;-69
2022/09/14 07:25:13;;;;;;;11.32;3.50;;;;;;;;;;4331651;33;20468;-69
2022/09/14 07:27:38;;;;;;;12.68;4.07;;;;;;;;;;4330221;33;20379;-68
2022/09/14 07:30:05;;;;;;;9.93;3.28;;;;;;;;;;4332523;33;20067;-69
2022/09/14 07:32:30;;;;;;;9.18;3.50;;;;;;;;;;4332254;33;20170;-69
2022/09/14 07:34:55;;;;;;;9.13;3.37;;;;;;;;;;4332139;33;20091;-70
2022/09/14 07:37:20;;;;;;;26.27;12.33;;;;;;;;;;4330991;33;20485;-68
2022/09/14 07:39:46;;;;;;;7.37;2.90;;;;;;;;;;4330419;33;20244;-68
2022/09/14 07:42:11;;;;;;;6.90;2.25;;;;;;;;;;4330290;33;20454;-68
2022/09/14 07:44:36;;;;;;;8.23;2.60;;;;;;;;;;4329876;33;20099;-68
2022/09/14 07:47:01;;;;;;;15.00;2.92;;;;;;;;;;4316284;33;20107;-70
2022/09/14 07:49:27;;;;;;;9.77;2.60;;;;;;;;;;4330298;33;20065;-69
2022/09/14 07:51:52;;;;;;;7.18;3.12;;;;;;;;;;4330404;33;20023;-69
2022/09/14 07:54:17;;;;;;;10.02;2.70;;;;;;;;;;4329966;33;20080;-69
2022/09/14 07:56:44;;;;;;;8.77;2.45;;;;;;;;;;4330641;33;20095;-69
2022/09/14 07:59:10;;;;;;;11.35;3.12;;;;;;;;;;4329660;33;20298;-69
2022/09/14 08:01:35;;;;;;;8.55;2.62;;;;;;;;;;4330252;33;20090;-68
2022/09/14 08:04:01;;;;;;;7.20;3.20;;;;;;;;;;4329953;33;20044;-69
2022/09/14 08:06:27;;;;;;;5.55;2.47;;;;;;;;;;4330760;33;20024;-69
2022/09/14 08:08:54;;;;;;;8.07;3.03;;;;;;;;;;4330986;33;20454;-69
2022/09/14 08:11:19;;;;;;;9.70;2.90;;;;;;;;;;4329810;33;20514;-69
2022/09/14 08:13:45;;;;;;;7.85;3.30;;;;;;;;;;4316431;33;20407;-69
2022/09/14 08:16:11;;;;;;;8.50;2.42;;;;;;;;;;4327993;33;20039;-70
2022/09/14 08:18:37;;;;;;;11.05;3.03;;;;;;;;;;4314712;33;20080;-68
2022/09/14 08:21:10;;;;;;;10.93;2.75;;;;;;;;;;4330713;33;20431;-68
2022/09/14 08:23:35;;;;;;;8.52;2.95;;;;;;;;;;4315599;33;20028;-68
2022/09/14 08:26:02;;;;;;;10.23;3.67;;;;;;;;;;4323840;33;20094;-68
2022/09/14 08:28:27;;;;;;;11.10;3.15;;;;;;;;;;4331317;33;20427;-70
2022/09/14 08:30:52;;;;;;;15.38;3.08;;;;;;;;;;4317057;33;20051;-67
2022/09/14 08:33:17;;;;;;;7.03;2.60;;;;;;;;;;4329903;33;20090;-68
2022/09/14 08:35:43;;;;;;;11.30;3.03;;;;;;;;;;4328504;33;20590;-69
2022/09/14 08:38:08;;;;;;;18.05;3.40;;;;;;;;;;4314193;33;20083;-68
2022/09/14 08:40:33;;;;;;;6.53;2.70;;;;;;;;;;4330359;33;20549;-69
2022/09/14 08:43:01;;;;;;;7.20;2.25;;;;;;;;;;4314535;33;20259;-69
2022/09/14 08:45:27;;;;;;;8.38;2.53;;;;;;;;;;4327537;33;20111;-69
2022/09/14 08:47:53;;;;;;;7.78;3.22;;;;;;;;;;4328390;33;20189;-68
2022/09/14 08:50:20;;;;;;;8.77;2.85;;;;;;;;;;4312524;33;20460;-68
2022/09/14 08:52:46;;;;;;;9.90;2.50;;;;;;;;;;4328464;33;20024;-69
2022/09/14 08:55:20;;;;;;;11.27;2.33;;;;;;;;;;4333258;33;20028;-68
2022/09/14 08:57:56;;;;;;;9.52;2.60;;;;;;;;;;4330379;33;20502;-69
2022/09/14 09:00:23;;;;;;;6.70;2.40;;;;;;;;;;4329079;33;20067;-68
2022/09/14 09:02:48;;;;;;;7.12;2.55;;;;;;;;;;4315619;33;20027;-69
2022/09/14 09:05:27;;;;;;;7.40;2.33;;;;;;;;;;4328366;33;20093;-69
2022/09/14 09:07:54;;;;;;;10.60;2.40;;;;;;;;;;4328867;33;20437;-69
2022/09/14 09:10:20;;;;;;;6.43;2.33;;;;;;;;;;4330054;33;20019;-68
2022/09/14 09:12:47;;;;;;;9.45;2.35;;;;;;;;;;4329823;33;20420;-69
2022/09/14 09:15:27;;;;;;;10.98;2.28;;;;;;;;;;4317353;33;20074;-70
2022/09/14 09:18:19;;;;;;;7.00;2.08;;;;;;;;;;4328945;33;20483;-68
2022/09/14 09:20:46;;;;;;;4.95;1.85;;;;;;;;;;4325325;33;20108;-67
2022/09/14 09:23:19;;;;;;;8.82;2.37;;;;;;;;;;4328370;33;20045;-69
2022/09/14 09:25:50;;;;;;;6.10;2.10;;;;;;;;;;4327526;33;20055;-68
2022/09/14 09:28:15;;;;;;;16.58;3.45;;;;;;;;;;4329591;33;20025;-68
2022/09/14 09:30:41;;;;;;;7.78;2.72;;;;;;;;;;4326749;33;20054;-68
2022/09/14 09:33:12;;;;;;;5.90;2.22;;;;;;;;;;4323553;33;20103;-68
2022/09/14 09:35:37;;;;;;;5.50;2.10;;;;;;;;;;4327786;33;20023;-68
2022/09/14 09:38:07;;;;;;;9.65;1.95;;;;;;;;;;4329431;33;20062;-69
2022/09/14 09:40:34;;;;;;;7.82;2.33;;;;;;;;;;4312744;33;20055;-69
2022/09/14 09:43:10;;;;;;;6.03;2.20;;;;;;;;;;4325663;33;20031;-68
2022/09/14 09:45:46;;;;;;;5.68;1.90;;;;;;;;;;4316024;33;20127;-69
2022/09/14 09:48:12;;;;;;;5.37;1.98;;;;;;;;;;4330996;33;20083;-70
2022/09/14 09:50:45;;;;;;;9.43;2.00;;;;;;;;;;4317014;33;20027;-67
2022/09/14 09:53:14;;;;;;;6.18;1.90;;;;;;;;;;4329138;33;20044;-68
2022/09/14 09:55:39;;;;;;;6.35;1.80;;;;;;;;;;4329971;33;20382;-68
2022/09/14 09:58:23;;;;;;;8.93;2.53;;;;;;;;;;4329055;33;20176;-68
2022/09/14 10:01:15;;;;;;;7.05;2.08;;;;;;;;;;4318161;33;20106;-68
2022/09/14 10:03:40;;;;;;;7.55;2.17;;;;;;;;;;4312462;33;20049;-69
2022/09/14 10:06:11;;;;;;;7.72;1.80;;;;;;;;;;4329857;33;20028;-71
2022/09/14 10:08:41;;;;;;;7.20;1.85;;;;;;;;;;4328606;33;20027;-70
2022/09/14 10:11:25;;;;;;;8.75;2.00;;;;;;;;;;4331116;33;20095;-70
2022/09/14 10:13:50;;;;;;;8.40;2.83;;;;;;;;;;4329422;33;20028;-72
2022/09/14 10:16:16;;;;;;;10.00;2.15;;;;;;;;;;4326617;33;20563;-71
2022/09/14 10:18:43;;;;;;;8.00;2.35;;;;;;;;;;4314981;33;20097;-70
2022/09/14 10:21:08;;;;;;;8.05;2.20;;;;;;;;;;4327644;33;20409;-71
2022/09/14 10:23:37;;;;;;;6.28;2.83;;;;;;;;;;4329140;33;20091;-71
2022/09/14 10:26:12;;;;;;;10.80;3.15;;;;;;;;;;4330337;33;20054;-70
2022/09/14 10:28:41;;;;;;;11.15;2.65;;;;;;;;;;4331083;33;20182;-69
2022/09/14 10:31:14;;;;;;;8.43;2.60;;;;;;;;;;4330212;33;20024;-71
2022/09/14 10:33:39;;;;;;;10.07;2.87;;;;;;;;;;4317278;33;20151;-71
2022/09/14 10:36:14;;;;;;;8.23;2.50;;;;;;;;;;4331453;33;20058;-70
2022/09/14 10:38:51;;;;;;;5.47;2.22;;;;;;;;;;4329166;33;20032;-71
2022/09/14 10:41:35;;;;;;;6.90;2.10;;;;;;;;;;4329945;33;20041;-71
2022/09/14 10:44:18;;;;;;;9.02;2.70;;;;;;;;;;4331563;33;20107;-70
2022/09/14 10:47:02;;;;;;;8.05;2.70;;;;;;;;;;4330446;33;20410;-71
2022/09/14 10:49:46;;;;;;;7.60;2.92;;;;;;;;;;4332542;33;20028;-72
2022/09/14 10:52:31;;;;;;;7.87;2.37;;;;;;;;;;4319151;33;20046;-71
2022/09/14 10:55:02;;;;;;;6.07;2.55;;;;;;;;;;4333424;33;20028;-71
2022/09/14 10:57:37;;;;;;;9.18;2.70;;;;;;;;;;4332171;33;20054;-71
2022/09/14 11:00:14;;;;;;;15.32;2.83;;;;;;;;;;4333316;33;20043;-71
2022/09/14 11:02:55;;;;;;;9.43;3.47;;;;;;;;;;4332778;33;20050;-71
2022/09/14 11:05:22;;;;;;;8.93;2.92;;;;;;;;;;4331981;33;20366;-72
2022/09/14 11:08:26;;;;;;;8.38;2.50;;;;;;;;;;4334342;33;20032;-71
2022/09/14 11:11:03;;;;;;;6.47;2.42;;;;;;;;;;4286595;33;20033;-70
2022/09/14 11:13:36;;;;;;;9.38;2.78;;;;;;;;;;4288341;33;20036;-70
2022/09/14 11:16:20;;;;;;;6.60;2.15;;;;;;;;;;4313579;33;20023;-71
2022/09/14 11:18:45;;;;;;;7.72;3.30;;;;;;;;;;4333593;33;20052;-70
2022/09/14 11:21:24;;;;;;;10.05;2.70;;;;;;;;;;4333196;33;20047;-71
2022/09/14 11:23:57;;;;;;;7.45;2.25;;;;;;;;;;4332483;33;20063;-70
2022/09/14 11:26:35;;;;;;;5.93;2.25;;;;;;;;;;4333876;33;20064;-70
2022/09/14 11:29:09;;;;;;;8.55;3.17;;;;;;;;;;4332098;33;20020;-70
2022/09/14 11:31:39;;;;;;;8.50;2.33;;;;;;;;;;4332093;33;20179;-70
2022/09/14 11:34:12;;;;;;;9.10;2.37;;;;;;;;;;4332118;33;20067;-71
2022/09/14 11:36:43;;;;;;;6.87;2.03;;;;;;;;;;4331128;33;20023;-70
2022/09/14 11:39:20;;;;;;;7.43;3.15;;;;;;;;;;4332008;33;20044;-70
2022/09/14 11:41:53;;;;;;;10.63;2.67;;;;;;;;;;4332196;33;20048;-71
2022/09/14 11:44:54;;;;;;;13.85;2.67;;;;;;;;;;4332110;33;20317;-70
2022/09/14 11:47:20;;;;;;;4.72;2.20;;;;;;;;;;4285538;33;20037;-70
2022/09/14 11:50:04;;;;;;;6.75;1.85;;;;;;;;;;4319629;33;20029;-70
2022/09/14 11:52:30;;;;;;;9.73;2.47;;;;;;;;;;4329951;33;20079;-71
2022/09/14 11:54:57;;;;;;;6.85;2.03;;;;;;;;;;4330089;33;20134;-70
2022/09/14 11:57:27;;;;;;;5.30;1.58;;;;;;;;;;4330111;33;20131;-70
2022/09/14 11:59:53;;;;;;;6.87;2.35;;;;;;;;;;4333984;33;20469;-71
2022/09/14 12:02:21;;;;;;;6.22;1.90;;;;;;;;;;4333227;33;20102;-70
2022/09/14 12:05:05;;;;;;;6.85;1.95;;;;;;;;;;4331964;33;20065;-70
2022/09/14 12:07:42;;;;;;;8.00;1.87;;;;;;;;;;4332387;33;20122;-71
2022/09/14 12:10:14;;;;;;;7.70;2.20;;;;;;;;;;4318724;33;20025;-70
2022/09/14 12:12:57;;;;;;;6.65;2.10;;;;;;;;;;4332077;33;20403;-70
2022/09/14 12:15:26;;;;;;;8.27;2.08;;;;;;;;;;4319720;33;20130;-71
2022/09/14 12:18:06;;;;;;;5.07;1.52;;;;;;;;;;4332997;33;20468;-70
2022/09/14 12:20:35;;;;;;;7.18;2.03;;;;;;;;;;4331840;33;20020;-71
2022/09/14 12:23:05;;;;;;;7.35;2.30;;;;;;;;;;4333244;33;20080;-69
2022/09/14 12:25:31;;;;;;;9.00;2.50;;;;;;;;;;4332557;33;20070;-71
2022/09/14 12:27:56;;;;;;;4.43;1.75;;;;;;;;;;4331538;33;20020;-70
2022/09/14 12:30:39;;;;;;;8.13;2.20;;;;;;;;;;4318427;33;20050;-70
2022/09/14 12:33:23;;;;;;;5.72;2.58;;;;;;;;;;4318178;33;20471;-71
2022/09/14 12:35:49;;;;;;;5.43;2.10;;;;;;;;;;4334465;33;20054;-70
2022/09/14 12:38:29;;;;;;;9.20;2.10;;;;;;;;;;4334502;33;20114;-70
2022/09/14 12:40:55;;;;;;;6.37;1.85;;;;;;;;;;4334567;33;20144;-69
2022/09/14 12:43:47;;;;;;;9.30;2.42;;;;;;;;;;4346486;33;20086;-70
2022/09/14 12:46:18;;;;;;;10.48;2.50;;;;;;;;;;4329630;33;20023;-71
2022/09/14 12:48:43;;;;;;;8.07;2.30;;;;;;;;;;4333736;33;20413;-72
2022/09/14 12:51:09;;;;;;;8.52;2.35;;;;;;;;;;4347433;33;20437;-71
2022/09/14 12:53:35;;;;;;;8.90;2.72;;;;;;;;;;4346583;33;20098;-72
2022/09/14 12:56:02;;;;;;;9.43;2.80;;;;;;;;;;4345880;33;20024;-72
2022/09/14 12:58:49;;;;;;;5.65;1.98;;;;;;;;;;4348771;33;20023;-71
2022/09/14 13:01:14;;;;;;;8.10;2.40;;;;;;;;;;4346726;33;20437;-71
2022/09/14 13:03:45;;;;;;;9.30;2.28;;;;;;;;;;4347547;33;20135;-71
2022/09/14 13:06:11;;;;;;;6.57;2.60;;;;;;;;;;4346890;33;20132;-70
2022/09/14 13:08:37;;;;;;;10.20;4.32;;;;;;;;;;4345369;33;20019;-69
2022/09/14 13:11:02;;;;;;;9.15;2.20;;;;;;;;;;4341640;33;20054;-69
2022/09/14 13:13:29;;;;;;;10.32;2.30;;;;;;;;;;4333446;33;20058;-72
2022/09/14 13:15:57;;;;;;;9.32;2.67;;;;;;;;;;4329666;33;20059;-70
2022/09/14 13:18:27;;;;;;;12.65;3.37;;;;;;;;;;4316088;33;20028;-70
2022/09/14 13:20:56;;;;;;;6.95;2.30;;;;;;;;;;4316675;33;20339;-70
2022/09/14 13:23:23;;;;;;;9.98;2.87;;;;;;;;;;4329367;33;20095;-70
2022/09/14 13:25:48;;;;;;;8.20;2.67;;;;;;;;;;4329171;33;20164;-69
2022/09/14 13:28:15;;;;;;;7.72;2.28;;;;;;;;;;4328043;33;20441;-70
2022/09/14 13:30:41;;;;;;;9.43;2.85;;;;;;;;;;4328433;33;20079;-71
2022/09/14 13:33:14;;;;;;;7.82;2.42;;;;;;;;;;4329096;33;20071;-70
2022/09/14 13:35:55;;;;;;;6.22;2.20;;;;;;;;;;4328846;33;20055;-70
2022/09/14 13:38:22;;;;;;;10.82;2.30;;;;;;;;;;4327957;33;20391;-70
2022/09/14 13:40:49;;;;;;;4.60;2.12;;;;;;;;;;4328539;33;20074;-70
2022/09/14 13:43:15;;;;;;;5.40;1.75;;;;;;;;;;4328044;33;20047;-71
2022/09/14 13:45:41;;;;;;;4.87;2.15;;;;;;;;;;4328454;33;20020;-71
2022/09/14 13:48:06;;;;;;;6.90;2.40;;;;;;;;;;4325539;33;20118;-72
2022/09/14 13:50:32;;;;;;;8.85;2.17;;;;;;;;;;4328163;33;20469;-70
2022/09/14 13:52:57;;;;;;;12.23;2.80;;;;;;;;;;4325812;33;20020;-71
2022/09/14 13:55:27;;;;;;;10.00;2.53;;;;;;;;;;4314261;33;20107;-71
2022/09/14 13:58:12;;;;;;;7.05;1.98;;;;;;;;;;4327725;33;20542;-70
2022/09/14 14:00:51;;;;;;;9.38;2.40;;;;;;;;;;4326386;33;20061;-71
2022/09/14 14:03:34;;;;;;;11.10;2.15;;;;;;;;;;4327061;33;20027;-71
2022/09/14 14:06:01;;;;;;;7.43;2.20;;;;;;;;;;4328533;33;20082;-71
2022/09/14 14:08:26;;;;;;;8.40;2.55;;;;;;;;;;4329145;33;20039;-71
2022/09/14 14:10:52;;;;;;;6.33;2.27;;;;;;;;;;4329691;33;20054;-70
2022/09/14 14:13:28;;;;;;;9.35;2.53;;;;;;;;;;4315044;33;20527;-70
2022/09/14 14:16:11;;;;;;;10.82;2.75;;;;;;;;;;4330075;33;20062;-71
2022/09/14 14:18:40;;;;;;;4.90;2.25;;;;;;;;;;4328686;33;20032;-71
2022/09/14 14:21:21;;;;;;;7.53;2.67;;;;;;;;;;4316389;33;20055;-71
2022/09/14 14:23:46;;;;;;;7.78;2.78;;;;;;;;;;4331754;33;20084;-71
2022/09/14 14:26:13;;;;;;;9.57;2.60;;;;;;;;;;4331012;33;20119;-71
2022/09/14 14:28:39;;;;;;;7.75;2.40;;;;;;;;;;4332651;33;20439;-71
2022/09/14 14:31:08;;;;;;;5.82;2.45;;;;;;;;;;4331035;33;20154;-72
2022/09/14 14:33:35;;;;;;;6.07;2.15;;;;;;;;;;4329530;33;20031;-71
2022/09/14 14:36:07;;;;;;;5.57;2.03;;;;;;;;;;4331751;33;20062;-72
2022/09/14 14:38:32;;;;;;;6.72;2.35;;;;;;;;;;4334477;33;20119;-71
2022/09/14 14:40:57;;;;;;;6.03;2.20;;;;;;;;;;4328604;33;20098;-72
2022/09/14 14:43:24;;;;;;;6.35;2.45;;;;;;;;;;4325948;33;20128;-71
2022/09/14 14:45:52;;;;;;;3.72;1.48;;;;;;;;;;4324004;33;20059;-71
2022/09/14 14:48:17;;;;;;;7.05;2.12;;;;;;;;;;4313340;33;20071;-71